Time;durP1;ratioP1;P1;durP2;ratioP2;P2;SDS_P1;SDS_P2;PMS_P1;PMS_P2;Temp;Humidity;BMP_temperature;BMP_pressure;BME280_temperature;BME280_humidity;BME280_pressure;Samples;Min_cycle;Max_cycle;Signal;HPM_P1;HPM_P2
2021/07/09 00:01:51;;;;;;;22.00;9.48;;;18.30;99.90;;;;;;5044368;28;19919;-78
2021/07/09 00:04:17;;;;;;;18.98;9.40;;;18.20;99.90;;;;;;5043216;28;20068;-77
2021/07/09 00:06:44;;;;;;;18.65;9.25;;;18.40;99.90;;;;;;5044862;28;20022;-77
2021/07/09 00:09:10;;;;;;;15.68;9.15;;;18.30;99.90;;;;;;5044676;28;20040;-77
2021/07/09 00:11:38;;;;;;;16.00;8.52;;;18.30;99.90;;;;;;5044747;28;20412;-78
2021/07/09 00:14:06;;;;;;;21.73;10.25;;;18.30;99.90;;;;;;5026656;28;20040;-77
2021/07/09 00:16:31;;;;;;;19.88;9.70;;;18.30;99.90;;;;;;5025172;28;20022;-77
2021/07/09 00:18:59;;;;;;;16.40;8.68;;;18.30;99.90;;;;;;5024846;28;20068;-77
2021/07/09 00:21:26;;;;;;;17.33;9.40;;;18.30;99.90;;;;;;5024727;28;20089;-77
2021/07/09 00:23:52;;;;;;;16.35;9.32;;;18.40;99.90;;;;;;5024786;28;20029;-77
2021/07/09 00:26:18;;;;;;;15.40;8.82;;;18.40;99.90;;;;;;5024738;28;20389;-77
2021/07/09 00:28:43;;;;;;;16.38;9.05;;;18.30;99.90;;;;;;5024668;28;20041;-78
2021/07/09 00:31:10;;;;;;;18.73;9.15;;;18.30;99.90;;;;;;5024732;28;20033;-79
2021/07/09 00:33:36;;;;;;;17.05;7.82;;;18.30;99.90;;;;;;5023742;28;20034;-78
2021/07/09 00:36:02;;;;;;;15.90;8.18;;;18.30;99.90;;;;;;5024726;28;20029;-76
2021/07/09 00:38:28;;;;;;;19.30;8.50;;;18.30;99.90;;;;;;5039825;28;20034;-77
2021/07/09 00:40:53;;;;;;;14.18;7.95;;;18.20;99.90;;;;;;5041883;28;20032;-78
2021/07/09 00:43:20;;;;;;;13.13;7.75;;;18.30;99.90;;;;;;5042977;28;20489;-78
2021/07/09 00:45:45;;;;;;;17.23;8.32;;;18.30;99.90;;;;;;5044525;28;20053;-79
2021/07/09 00:48:11;;;;;;;13.43;8.45;;;18.30;99.90;;;;;;5043067;28;20032;-78
2021/07/09 00:50:36;;;;;;;16.83;8.18;;;18.40;99.90;;;;;;5044268;28;20029;-79
2021/07/09 00:53:02;;;;;;;15.73;7.05;;;18.30;99.90;;;;;;5044402;28;20040;-77
2021/07/09 00:55:28;;;;;;;12.40;7.38;;;18.40;99.90;;;;;;5044303;28;20029;-78
2021/07/09 00:57:54;;;;;;;19.50;8.88;;;18.30;99.90;;;;;;5044174;28;20026;-77
2021/07/09 01:00:22;;;;;;;14.70;8.35;;;18.30;99.90;;;;;;5042662;28;20021;-78
2021/07/09 01:02:48;;;;;;;12.73;7.07;;;18.30;99.90;;;;;;5043974;28;20033;-79
2021/07/09 01:05:16;;;;;;;13.30;7.20;;;18.40;99.90;;;;;;5042959;28;20037;-79
2021/07/09 01:07:42;;;;;;;16.75;7.50;;;18.40;99.90;;;;;;5044274;28;20032;-78
2021/07/09 01:10:10;;;;;;;15.35;8.02;;;18.30;99.90;;;;;;5044244;28;20068;-79
2021/07/09 01:12:38;;;;;;;16.00;7.72;;;18.30;99.90;;;;;;5045054;28;20053;-79
2021/07/09 01:15:06;;;;;;;17.33;9.38;;;18.30;99.90;;;;;;5046486;28;20026;-78
2021/07/09 01:17:32;;;;;;;25.48;9.10;;;18.30;99.90;;;;;;5046392;28;20033;-79
2021/07/09 01:19:58;;;;;;;14.88;8.30;;;18.40;99.90;;;;;;5047588;28;20041;-78
2021/07/09 01:22:27;;;;;;;16.63;8.75;;;18.20;99.90;;;;;;5047693;28;20025;-77
2021/07/09 01:24:53;;;;;;;20.55;9.48;;;18.30;99.90;;;;;;5047629;28;20017;-78
2021/07/09 01:27:19;;;;;;;15.85;9.13;;;18.30;99.90;;;;;;5046341;28;20487;-78
2021/07/09 01:29:45;;;;;;;16.30;9.05;;;18.20;99.90;;;;;;5047549;28;20073;-78
2021/07/09 01:32:11;;;;;;;20.65;11.23;;;18.30;99.90;;;;;;5047653;28;20040;-78
2021/07/09 01:34:37;;;;;;;17.67;10.60;;;18.20;99.90;;;;;;5047526;28;20049;-79
2021/07/09 01:37:11;;;;;;;21.63;10.68;;;18.20;99.90;;;;;;5047558;28;20040;-77
2021/07/09 01:39:38;;;;;;;14.38;9.70;;;18.20;99.90;;;;;;5047277;28;20040;-79
2021/07/09 01:42:03;;;;;;;23.55;10.68;;;18.20;99.90;;;;;;5047474;28;20029;-78
2021/07/09 01:44:29;;;;;;;21.83;11.20;;;18.10;99.90;;;;;;5047367;28;20091;-78
2021/07/09 01:46:55;;;;;;;23.90;9.63;;;18.10;99.90;;;;;;5047213;28;20451;-78
2021/07/09 01:49:21;;;;;;;21.55;10.27;;;18.10;99.90;;;;;;5045465;28;20495;-78
2021/07/09 01:51:46;;;;;;;18.67;9.32;;;18.10;99.90;;;;;;5045776;28;20026;-80
2021/07/09 01:54:12;;;;;;;21.67;9.88;;;18.10;99.90;;;;;;5047251;28;20056;-78
2021/07/09 01:56:38;;;;;;;18.05;9.48;;;18.10;99.90;;;;;;5045812;28;20025;-80
2021/07/09 01:59:04;;;;;;;18.52;10.13;;;18.00;99.90;;;;;;5045806;28;20379;-79
2021/07/09 02:01:29;;;;;;;14.38;8.02;;;18.10;99.90;;;;;;5046973;28;20026;-77
2021/07/09 02:03:55;;;;;;;21.73;9.07;;;18.00;99.90;;;;;;5046655;28;20100;-81
2021/07/09 02:06:20;;;;;;;15.90;9.02;;;18.00;99.90;;;;;;5046665;28;20479;-79
2021/07/09 02:08:46;;;;;;;14.00;8.80;;;18.10;99.90;;;;;;5046635;28;20037;-78
2021/07/09 02:11:12;;;;;;;19.45;7.88;;;18.10;99.90;;;;;;5045546;28;20048;-78
2021/07/09 02:13:38;;;;;;;18.38;9.77;;;18.00;99.90;;;;;;5046898;28;20025;-79
2021/07/09 02:16:04;;;;;;;12.48;7.88;;;18.10;99.90;;;;;;5046940;28;20034;-78
2021/07/09 02:18:29;;;;;;;16.25;8.25;;;18.00;99.90;;;;;;5045063;28;20044;-77
2021/07/09 02:20:57;;;;;;;11.70;7.22;;;18.10;99.90;;;;;;5045149;28;20032;-78
2021/07/09 02:23:23;;;;;;;14.50;8.68;;;18.00;99.90;;;;;;5045251;28;20029;-78
2021/07/09 02:25:49;;;;;;;11.00;7.20;;;18.10;99.90;;;;;;5045923;28;20034;-78
2021/07/09 02:28:15;;;;;;;10.13;6.63;;;18.00;99.90;;;;;;5046499;28;20079;-78
2021/07/09 02:30:41;;;;;;;15.75;8.25;;;18.00;99.90;;;;;;5046456;28;20051;-77
2021/07/09 02:33:08;;;;;;;12.02;6.20;;;17.90;99.90;;;;;;5046497;28;20097;-77
2021/07/09 02:35:38;;;;;;;10.27;5.95;;;17.90;99.90;;;;;;5045263;28;20102;-77
2021/07/09 02:38:05;;;;;;;10.88;6.43;;;17.90;99.90;;;;;;5046488;28;20025;-77
2021/07/09 02:40:32;;;;;;;10.25;5.47;;;17.90;99.90;;;;;;5045142;28;20045;-78
2021/07/09 02:43:00;;;;;;;8.65;5.50;;;17.90;99.90;;;;;;5046106;28;20029;-78
2021/07/09 02:45:26;;;;;;;12.32;6.13;;;17.90;99.90;;;;;;5044862;28;20025;-78
2021/07/09 02:47:52;;;;;;;10.10;5.78;;;17.70;99.90;;;;;;5046087;28;20034;-78
2021/07/09 02:50:22;;;;;;;9.70;5.15;;;17.70;99.90;;;;;;5045826;28;20052;-79
2021/07/09 02:52:48;;;;;;;15.75;5.65;;;17.70;99.90;;;;;;5044723;28;20064;-77
2021/07/09 02:55:15;;;;;;;13.65;5.88;;;17.80;99.90;;;;;;5045865;28;20022;-79
2021/07/09 02:57:41;;;;;;;16.60;7.47;;;17.80;99.90;;;;;;5045818;28;20017;-78
2021/07/09 03:00:10;;;;;;;10.93;6.63;;;17.80;99.90;;;;;;5046094;28;20026;-78
2021/07/09 03:02:36;;;;;;;13.25;7.65;;;17.70;99.90;;;;;;5045943;28;20041;-81
2021/07/09 03:05:02;;;;;;;13.18;6.45;;;17.70;99.90;;;;;;5044535;28;20028;-78
2021/07/09 03:07:28;;;;;;;12.27;7.05;;;17.70;99.90;;;;;;5045401;28;20033;-77
2021/07/09 03:09:54;;;;;;;16.73;7.80;;;17.70;99.90;;;;;;5044324;28;20037;-77
2021/07/09 03:12:19;;;;;;;17.92;7.93;;;17.60;99.90;;;;;;5045192;28;20050;-77
2021/07/09 03:14:45;;;;;;;13.40;7.50;;;17.70;99.90;;;;;;5044256;28;20135;-77
2021/07/09 03:17:11;;;;;;;13.40;6.97;;;17.60;99.90;;;;;;5045538;28;20082;-78
2021/07/09 03:19:36;;;;;;;11.80;7.28;;;17.70;99.90;;;;;;5044078;28;20060;-79
2021/07/09 03:22:02;;;;;;;13.32;7.03;;;17.60;99.90;;;;;;5044312;28;20029;-77
2021/07/09 03:24:28;;;;;;;13.38;6.95;;;17.70;99.90;;;;;;5045282;28;20052;-76
2021/07/09 03:26:54;;;;;;;10.90;6.72;;;17.70;99.90;;;;;;5045494;28;20033;-78
2021/07/09 03:29:19;;;;;;;15.20;7.43;;;17.70;99.90;;;;;;5043699;28;20041;-78
2021/07/09 03:31:45;;;;;;;14.05;6.72;;;17.70;99.90;;;;;;5045210;28;20021;-78
2021/07/09 03:34:11;;;;;;;11.73;6.53;;;17.60;99.90;;;;;;5045233;28;20081;-84
2021/07/09 03:36:43;;;;;;;14.23;7.00;;;17.60;99.90;;;;;;5043242;28;20029;-80
2021/07/09 03:39:13;;;;;;;21.77;8.45;;;17.60;99.90;;;;;;5045207;28;20140;-84
2021/07/09 03:41:40;;;;;;;11.23;6.75;;;17.60;99.90;;;;;;5044011;28;20029;-82
2021/07/09 03:44:07;;;;;;;19.23;7.88;;;17.60;99.90;;;;;;5045474;28;20033;-82
2021/07/09 03:46:36;;;;;;;13.82;7.00;;;17.60;99.90;;;;;;5045130;28;20053;-80
2021/07/09 03:49:04;;;;;;;14.93;6.90;;;17.60;99.90;;;;;;5044910;28;20128;-80
2021/07/09 03:51:30;;;;;;;13.15;6.90;;;17.50;99.90;;;;;;5043473;28;20017;-78
2021/07/09 03:53:56;;;;;;;20.38;5.88;;;17.60;99.90;;;;;;5043512;28;20514;-79
2021/07/09 03:56:22;;;;;;;9.70;5.97;;;17.60;99.90;;;;;;5043614;28;20500;-78
2021/07/09 03:58:49;;;;;;;19.63;7.13;;;17.60;99.90;;;;;;5044753;28;20026;-79
2021/07/09 04:01:15;;;;;;;23.00;7.30;;;17.60;99.90;;;;;;5043371;28;20056;-77
2021/07/09 04:03:41;;;;;;;12.35;7.00;;;17.60;99.90;;;;;;5043422;28;20025;-77
2021/07/09 04:06:06;;;;;;;10.57;6.43;;;17.60;99.90;;;;;;5045024;28;20029;-78
2021/07/09 04:08:32;;;;;;;11.18;5.97;;;17.60;99.90;;;;;;5044896;28;20067;-78
2021/07/09 04:10:58;;;;;;;14.55;6.30;;;17.60;99.90;;;;;;5044572;28;20053;-80
2021/07/09 04:13:23;;;;;;;13.25;6.10;;;17.60;99.90;;;;;;5043317;28;20028;-80
2021/07/09 04:15:49;;;;;;;11.77;5.80;;;17.70;99.90;;;;;;5043428;28;20026;-79
2021/07/09 04:18:15;;;;;;;10.88;6.40;;;17.50;99.90;;;;;;5044646;28;20029;-80
2021/07/09 04:20:40;;;;;;;14.18;7.07;;;17.70;99.90;;;;;;5044642;28;20082;-80
2021/07/09 04:23:06;;;;;;;11.55;6.35;;;17.60;99.90;;;;;;5044851;28;20022;-79
2021/07/09 04:25:33;;;;;;;18.55;7.38;;;17.80;99.90;;;;;;5043185;28;20077;-80
2021/07/09 04:27:58;;;;;;;11.68;6.32;;;17.70;99.90;;;;;;5044509;28;20033;-78
2021/07/09 04:30:24;;;;;;;13.10;6.97;;;17.60;99.90;;;;;;5044411;28;20041;-79
2021/07/09 04:32:50;;;;;;;14.82;7.53;;;17.70;99.90;;;;;;5044486;28;20021;-76
2021/07/09 04:35:15;;;;;;;10.48;6.97;;;17.70;99.90;;;;;;5044348;28;20055;-78
2021/07/09 04:37:41;;;;;;;11.88;7.55;;;17.70;99.90;;;;;;5044467;28;20047;-76
2021/07/09 04:40:08;;;;;;;17.52;7.47;;;17.80;99.90;;;;;;5044667;28;20029;-73
2021/07/09 04:42:34;;;;;;;13.38;7.57;;;17.80;99.90;;;;;;5044446;28;20124;-77
2021/07/09 04:44:59;;;;;;;15.75;7.63;;;17.80;99.90;;;;;;5044435;28;20025;-76
2021/07/09 04:47:25;;;;;;;18.95;7.90;;;17.80;99.90;;;;;;5045151;28;20610;-75
2021/07/09 04:49:51;;;;;;;12.27;7.50;;;17.80;99.90;;;;;;5048248;28;20045;-73
2021/07/09 04:52:17;;;;;;;12.23;7.00;;;17.80;99.90;;;;;;5048238;28;20479;-75
2021/07/09 04:54:42;;;;;;;12.05;6.93;;;17.80;99.90;;;;;;5048242;28;20039;-74
2021/07/09 04:57:08;;;;;;;12.65;7.43;;;17.80;99.90;;;;;;5048424;28;20033;-74
2021/07/09 04:59:34;;;;;;;16.30;8.35;;;17.90;99.90;;;;;;5048262;28;20051;-76
2021/07/09 05:01:59;;;;;;;13.52;7.45;;;17.90;99.90;;;;;;5048419;28;20032;-73
2021/07/09 05:04:25;;;;;;;16.50;7.40;;;17.90;99.90;;;;;;5048062;28;20048;-74
2021/07/09 05:06:51;;;;;;;14.90;7.32;;;17.90;99.90;;;;;;5048146;28;20081;-74
2021/07/09 05:09:16;;;;;;;16.67;8.05;;;18.00;99.90;;;;;;5047935;28;20038;-74
2021/07/09 05:11:42;;;;;;;11.07;7.13;;;18.00;99.90;;;;;;5046511;28;20121;-74
2021/07/09 05:14:08;;;;;;;17.33;7.43;;;18.10;99.90;;;;;;5048039;28;20033;-75
2021/07/09 05:16:34;;;;;;;12.40;7.90;;;18.00;99.90;;;;;;5035900;28;20030;-75
2021/07/09 05:19:01;;;;;;;14.27;8.25;;;18.10;99.90;;;;;;5039580;28;20029;-76
2021/07/09 05:21:27;;;;;;;13.38;7.90;;;18.00;99.90;;;;;;5042035;28;20110;-77
2021/07/09 05:23:53;;;;;;;13.98;7.95;;;18.10;99.90;;;;;;5034706;28;20037;-76
2021/07/09 05:26:18;;;;;;;13.88;8.45;;;18.10;99.90;;;;;;5038553;28;20049;-78
2021/07/09 05:28:44;;;;;;;16.65;8.82;;;18.10;99.90;;;;;;5037363;28;20037;-75
2021/07/09 05:31:10;;;;;;;14.95;8.00;;;18.10;99.90;;;;;;5037800;28;20030;-76
2021/07/09 05:33:36;;;;;;;15.25;8.75;;;18.20;99.90;;;;;;5038083;28;20081;-76
2021/07/09 05:36:01;;;;;;;16.17;6.82;;;18.20;99.90;;;;;;5046017;28;20021;-77
2021/07/09 05:38:27;;;;;;;15.68;8.38;;;18.20;99.90;;;;;;5027580;28;20029;-78
2021/07/09 05:40:52;;;;;;;18.70;8.93;;;18.10;99.90;;;;;;5027472;28;20033;-77
2021/07/09 05:43:20;;;;;;;20.50;8.98;;;18.20;99.90;;;;;;5026144;28;20030;-78
2021/07/09 05:45:46;;;;;;;16.58;8.57;;;18.20;99.90;;;;;;5026113;28;20026;-77
2021/07/09 05:48:11;;;;;;;17.30;8.57;;;18.10;99.90;;;;;;5026158;28;20053;-78
2021/07/09 05:50:37;;;;;;;16.05;9.18;;;18.30;99.90;;;;;;5025957;28;20057;-77
2021/07/09 05:53:03;;;;;;;17.35;9.05;;;18.30;99.90;;;;;;5026771;28;20110;-78
2021/07/09 05:55:28;;;;;;;12.98;7.97;;;18.30;99.90;;;;;;5027249;28;20037;-77
2021/07/09 05:57:54;;;;;;;17.35;8.10;;;18.40;99.90;;;;;;5023914;28;20025;-77
2021/07/09 06:00:20;;;;;;;19.15;8.70;;;18.40;99.90;;;;;;5023107;28;20022;-77
2021/07/09 06:02:45;;;;;;;13.93;7.40;;;18.40;99.90;;;;;;5034585;28;20025;-78
2021/07/09 06:05:11;;;;;;;12.85;7.40;;;18.40;99.90;;;;;;5025320;28;20022;-79
2021/07/09 06:07:38;;;;;;;13.25;7.80;;;18.50;99.90;;;;;;5027316;28;20026;-76
2021/07/09 06:10:05;;;;;;;11.57;6.40;;;18.60;99.90;;;;;;5027172;28;21090;-77
2021/07/09 06:12:31;;;;;;;12.70;7.15;;;18.60;99.90;;;;;;5025454;28;20058;-76
2021/07/09 06:15:00;;;;;;;11.45;7.28;;;18.60;99.90;;;;;;5027047;28;20156;-75
2021/07/09 06:17:27;;;;;;;11.70;6.85;;;18.70;99.90;;;;;;5027138;28;20022;-74
2021/07/09 06:19:53;;;;;;;13.27;6.15;;;18.70;99.90;;;;;;5026829;28;20018;-76
2021/07/09 06:22:19;;;;;;;12.98;6.13;;;18.70;99.90;;;;;;5027015;28;20030;-74
2021/07/09 06:24:44;;;;;;;11.05;6.05;;;18.80;99.90;;;;;;5026719;28;20037;-74
2021/07/09 06:27:10;;;;;;;14.20;5.53;;;18.70;99.90;;;;;;5026916;28;20033;-75
2021/07/09 06:29:35;;;;;;;8.50;5.45;;;18.70;99.90;;;;;;5026982;28;20039;-74
2021/07/09 06:32:01;;;;;;;9.95;5.65;;;18.70;99.90;;;;;;5030334;28;20105;-74
2021/07/09 06:34:27;;;;;;;10.02;5.63;;;18.80;99.90;;;;;;5034063;28;20053;-71
2021/07/09 06:36:53;;;;;;;9.20;5.13;;;18.80;99.90;;;;;;5026628;28;20033;-70
2021/07/09 06:39:19;;;;;;;9.00;5.10;;;18.80;99.90;;;;;;5026477;28;20045;-71
2021/07/09 06:41:44;;;;;;;10.65;4.82;;;18.70;99.90;;;;;;5026571;28;20041;-73
2021/07/09 06:44:10;;;;;;;10.02;4.70;;;18.70;99.90;;;;;;5026732;28;20384;-71
2021/07/09 06:46:36;;;;;;;12.52;5.60;;;18.70;99.90;;;;;;5026822;28;20030;-73
2021/07/09 06:49:01;;;;;;;13.73;5.10;;;18.70;99.90;;;;;;5026393;28;20581;-71
2021/07/09 06:51:27;;;;;;;10.38;5.95;;;18.70;99.90;;;;;;5026482;28;20401;-71
2021/07/09 06:53:52;;;;;;;7.65;4.28;;;18.70;99.90;;;;;;5026388;28;20030;-73
2021/07/09 06:56:18;;;;;;;12.35;5.20;;;18.70;99.90;;;;;;5026304;28;20522;-73
2021/07/09 06:58:44;;;;;;;8.15;4.63;;;18.70;99.90;;;;;;5026216;28;20034;-70
2021/07/09 07:01:10;;;;;;;10.20;4.55;;;18.80;99.90;;;;;;5026212;28;20030;-75
2021/07/09 07:03:35;;;;;;;10.80;4.55;;;18.80;99.90;;;;;;5026335;28;20040;-73
2021/07/09 07:06:01;;;;;;;8.98;4.53;;;18.80;99.90;;;;;;5032521;28;20030;-73
2021/07/09 07:08:27;;;;;;;7.88;4.20;;;18.80;99.90;;;;;;5040564;28;20034;-74
2021/07/09 07:10:54;;;;;;;8.93;4.72;;;18.90;99.90;;;;;;5044309;28;20089;-74
2021/07/09 07:13:21;;;;;;;7.82;4.35;;;18.90;99.90;;;;;;5035048;28;20021;-73
2021/07/09 07:15:47;;;;;;;7.90;4.68;;;18.90;99.90;;;;;;5040249;28;20022;-72
2021/07/09 07:18:13;;;;;;;20.08;4.82;;;18.90;99.90;;;;;;5043907;28;20107;-71
2021/07/09 07:20:42;;;;;;;8.18;4.20;;;19.00;99.90;;;;;;5043002;28;20026;-74
2021/07/09 07:23:12;;;;;;;8.45;4.68;;;18.90;99.90;;;;;;5045858;28;20021;-75
2021/07/09 07:25:39;;;;;;;7.90;4.03;;;19.00;99.90;;;;;;5036142;28;20026;-73
2021/07/09 07:28:07;;;;;;;7.43;4.00;;;19.00;99.90;;;;;;5034265;28;20033;-72
2021/07/09 07:30:33;;;;;;;10.10;5.05;;;19.00;99.90;;;;;;5029754;28;20043;-74
2021/07/09 07:32:59;;;;;;;7.97;3.90;;;19.10;99.90;;;;;;5033760;28;20537;-75
2021/07/09 07:35:26;;;;;;;10.88;4.82;;;19.10;99.90;;;;;;5036465;28;20022;-73
2021/07/09 07:37:52;;;;;;;5.32;3.45;;;19.20;99.90;;;;;;5025253;28;20034;-72
2021/07/09 07:40:19;;;;;;;6.72;3.40;;;19.10;99.90;;;;;;5040748;28;20044;-77
2021/07/09 07:42:45;;;;;;;6.57;3.72;;;19.10;99.90;;;;;;5039622;28;20506;-74
2021/07/09 07:45:12;;;;;;;6.68;3.90;;;19.10;99.90;;;;;;5028245;28;20057;-72
2021/07/09 07:47:38;;;;;;;7.38;3.70;;;19.10;99.90;;;;;;5045399;28;20056;-73
2021/07/09 07:50:05;;;;;;;7.13;3.72;;;19.10;99.90;;;;;;5045063;28;20033;-74
2021/07/09 07:52:31;;;;;;;8.68;4.13;;;19.00;99.90;;;;;;5025193;28;20140;-73
2021/07/09 07:54:57;;;;;;;16.45;4.00;;;19.00;99.90;;;;;;5025211;28;20506;-70
2021/07/09 07:57:22;;;;;;;8.18;4.07;;;19.00;99.90;;;;;;5025637;28;20018;-72
2021/07/09 07:59:48;;;;;;;6.78;4.32;;;18.90;99.90;;;;;;5024981;28;20087;-71
2021/07/09 08:02:14;;;;;;;6.80;3.58;;;18.80;99.90;;;;;;5043554;28;20037;-74
2021/07/09 08:04:41;;;;;;;8.00;3.38;;;18.80;99.90;;;;;;5034115;28;20108;-77
2021/07/09 08:07:10;;;;;;;5.50;3.28;;;18.80;99.90;;;;;;5037703;28;20057;-71
2021/07/09 08:09:35;;;;;;;5.88;3.72;;;18.80;99.90;;;;;;5030528;28;20038;-73
2021/07/09 08:12:02;;;;;;;5.40;3.22;;;18.70;99.90;;;;;;5031242;28;20072;-71
2021/07/09 08:14:28;;;;;;;7.95;3.38;;;18.70;99.90;;;;;;5035278;28;20097;-72
2021/07/09 08:16:53;;;;;;;5.40;3.20;;;18.60;99.90;;;;;;5038904;28;20029;-70
2021/07/09 08:19:21;;;;;;;7.18;3.55;;;18.60;99.90;;;;;;5028015;28;20022;-72
2021/07/09 08:21:47;;;;;;;5.75;3.58;;;18.60;99.90;;;;;;5031930;28;20049;-71
2021/07/09 08:24:14;;;;;;;6.25;3.67;;;18.60;99.90;;;;;;5030715;28;20029;-72
2021/07/09 08:26:40;;;;;;;5.45;3.33;;;18.60;99.90;;;;;;5024842;28;20030;-69
2021/07/09 08:29:05;;;;;;;10.65;3.90;;;18.60;99.90;;;;;;5025453;28;20049;-71
2021/07/09 08:31:31;;;;;;;8.52;3.67;;;18.60;99.90;;;;;;5027537;28;20038;-70
2021/07/09 08:33:57;;;;;;;6.60;3.90;;;18.60;99.90;;;;;;5044399;28;20028;-69
2021/07/09 08:36:25;;;;;;;6.80;3.45;;;18.70;99.90;;;;;;5041608;28;20068;-68
2021/07/09 08:38:52;;;;;;;7.82;3.88;;;18.70;99.90;;;;;;5024454;28;20030;-71
2021/07/09 08:41:18;;;;;;;5.85;3.10;;;18.70;99.90;;;;;;5040567;28;20674;-68
2021/07/09 08:43:44;;;;;;;8.73;4.28;;;18.80;99.90;;;;;;5044022;28;20032;-71
2021/07/09 08:46:10;;;;;;;8.65;3.58;;;18.80;99.90;;;;;;5039444;28;20041;-69
2021/07/09 08:48:40;;;;;;;6.10;3.65;;;18.90;99.90;;;;;;5036814;28;20049;-70
2021/07/09 08:51:06;;;;;;;11.50;4.85;;;19.00;99.90;;;;;;5039970;28;20424;-70
2021/07/09 08:53:32;;;;;;;5.90;3.75;;;19.00;99.90;;;;;;5037031;28;20014;-72
2021/07/09 08:55:59;;;;;;;7.82;3.90;;;19.10;99.90;;;;;;5026124;28;20022;-72
2021/07/09 08:58:24;;;;;;;5.35;3.28;;;19.20;99.90;;;;;;5024125;28;20082;-70
2021/07/09 09:00:50;;;;;;;13.23;4.18;;;19.40;99.90;;;;;;5030673;28;20040;-68
2021/07/09 09:03:24;;;;;;;9.32;3.90;;;19.50;99.90;;;;;;5037646;28;20387;-73
2021/07/09 09:05:51;;;;;;;13.75;4.18;;;19.70;99.90;;;;;;5044253;28;20036;-74
2021/07/09 09:08:20;;;;;;;6.32;3.85;;;19.80;99.90;;;;;;5038620;28;20058;-70
2021/07/09 09:10:48;;;;;;;5.10;2.92;;;20.00;99.90;;;;;;5023878;28;20026;-73
2021/07/09 09:13:16;;;;;;;7.88;3.55;;;20.10;99.90;;;;;;5024785;28;20026;-73
2021/07/09 09:15:43;;;;;;;7.28;3.63;;;20.40;99.90;;;;;;5024805;28;20041;-69
2021/07/09 09:18:20;;;;;;;5.18;2.83;;;20.50;99.90;;;;;;5040608;28;20049;-74
2021/07/09 09:20:58;;;;;;;5.78;3.55;;;20.70;99.90;;;;;;5038239;28;20026;-73
2021/07/09 09:23:25;;;;;;;4.63;2.83;;;20.80;99.90;;;;;;5031025;28;20030;-73
2021/07/09 09:25:50;;;;;;;8.10;2.60;;;21.00;99.90;;;;;;5023788;28;20022;-72
2021/07/09 09:28:16;;;;;;;3.15;2.30;;;21.10;99.90;;;;;;5023996;28;20022;-73
2021/07/09 09:30:43;;;;;;;5.47;2.60;;;21.10;99.90;;;;;;5038127;28;20046;-74
2021/07/09 09:33:11;;;;;;;6.68;2.45;;;21.00;99.90;;;;;;5033442;28;20026;-71
2021/07/09 09:35:42;;;;;;;3.85;1.90;;;20.90;99.90;;;;;;5039682;28;20041;-76
2021/07/09 09:38:13;;;;;;;2.13;1.58;;;20.70;99.90;;;;;;5027318;28;20064;-73
2021/07/09 09:40:43;;;;;;;5.30;1.98;;;20.60;99.90;;;;;;5027864;28;20092;-77
2021/07/09 09:43:12;;;;;;;5.97;2.42;;;20.70;99.90;;;;;;5025784;28;20116;-71
2021/07/09 09:45:40;;;;;;;4.93;2.42;;;20.70;99.90;;;;;;5041210;28;20026;-75
2021/07/09 09:48:11;;;;;;;2.80;2.10;;;20.80;99.90;;;;;;5034034;28;20033;-72
2021/07/09 09:50:45;;;;;;;2.28;1.85;;;20.80;99.90;;;;;;5046623;28;20072;-74
2021/07/09 09:53:11;;;;;;;4.80;2.30;;;20.90;99.90;;;;;;5027834;28;20060;-71
2021/07/09 09:55:37;;;;;;;9.63;2.22;;;21.00;99.90;;;;;;5042742;28;20034;-74
2021/07/09 09:58:14;;;;;;;3.28;1.95;;;21.00;99.90;;;;;;5046100;28;20026;-75
2021/07/09 10:00:45;;;;;;;3.47;1.77;;;21.00;99.90;;;;;;5026999;28;20030;-72
2021/07/09 10:03:11;;;;;;;4.70;2.30;;;21.00;99.90;;;;;;5029890;28;20031;-70
2021/07/09 10:05:40;;;;;;;6.93;2.85;;;21.00;99.90;;;;;;5045733;28;20089;-69
2021/07/09 10:08:10;;;;;;;3.70;1.85;;;21.10;99.90;;;;;;5045790;28;20026;-69
2021/07/09 10:10:36;;;;;;;4.30;2.08;;;21.20;99.90;;;;;;5042577;28;20041;-71
2021/07/09 10:13:05;;;;;;;8.52;3.15;;;21.10;99.90;;;;;;5040432;28;20030;-70
2021/07/09 10:15:31;;;;;;;3.10;2.03;;;21.10;99.90;;;;;;5042796;28;20108;-72
2021/07/09 10:17:58;;;;;;;8.68;2.83;;;21.20;99.90;;;;;;5043719;28;20037;-70
2021/07/09 10:20:24;;;;;;;3.75;2.22;;;21.20;99.90;;;;;;5045113;28;20028;-71
2021/07/09 10:22:51;;;;;;;4.05;2.10;;;21.20;99.90;;;;;;5043606;28;20032;-71
2021/07/09 10:25:18;;;;;;;3.83;2.00;;;21.30;99.90;;;;;;5044589;28;20025;-70
2021/07/09 10:27:45;;;;;;;3.63;1.73;;;21.30;99.90;;;;;;5045767;28;20104;-72
2021/07/09 10:30:13;;;;;;;4.22;2.15;;;21.30;99.90;;;;;;5046764;28;20048;-74
2021/07/09 10:32:40;;;;;;;3.85;2.38;;;21.30;99.90;;;;;;5046681;28;20032;-69
2021/07/09 10:35:08;;;;;;;3.15;1.70;;;21.20;99.90;;;;;;5046511;28;20060;-71
2021/07/09 10:37:34;;;;;;;8.82;2.35;;;21.30;99.90;;;;;;5044928;28;20038;-70
2021/07/09 10:40:19;;;;;;;9.90;2.58;;;21.20;99.90;;;;;;5046229;28;20036;-69
2021/07/09 10:42:46;;;;;;;3.63;1.75;;;21.20;99.90;;;;;;5046350;28;20021;-74
2021/07/09 10:45:14;;;;;;;2.83;1.88;;;21.10;99.90;;;;;;5046134;28;20030;-71
2021/07/09 10:47:44;;;;;;;2.45;1.55;;;21.00;99.90;;;;;;5046349;28;20051;-75
2021/07/09 10:50:13;;;;;;;4.65;2.35;;;21.00;99.90;;;;;;5046037;28;20044;-72
2021/07/09 10:52:46;;;;;;;3.97;1.75;;;20.90;99.90;;;;;;5045253;28;20033;-71
2021/07/09 10:55:42;;;;;;;3.78;2.03;;;20.90;99.90;;;;;;5046413;28;20032;-68
2021/07/09 10:58:16;;;;;;;3.63;2.40;;;20.90;99.90;;;;;;5041496;28;20037;-71
2021/07/09 11:00:49;;;;;;;5.90;2.67;;;20.80;99.90;;;;;;5046109;28;20506;-70
2021/07/09 11:03:22;;;;;;;2.13;1.60;;;20.80;99.90;;;;;;5045732;28;20040;-70
2021/07/09 11:05:50;;;;;;;6.85;2.53;;;20.80;99.90;;;;;;5045708;28;20045;-70
2021/07/09 11:11:06;;;;;;;2.40;1.48;;;20.80;99.90;;;;;;5045655;28;20057;-72
2021/07/09 11:13:46;;;;;;;3.33;1.83;;;20.70;99.90;;;;;;5045375;28;20029;-74
2021/07/09 11:16:23;;;;;;;2.75;1.45;;;20.70;99.90;;;;;;5045458;28;20060;-69
2021/07/09 11:19:04;;;;;;;4.57;1.95;;;20.60;99.90;;;;;;5045753;28;20028;-69
2021/07/09 11:21:30;;;;;;;3.30;1.92;;;20.60;99.90;;;;;;5045598;28;20033;-70
2021/07/09 11:23:57;;;;;;;1.88;1.48;;;20.50;99.90;;;;;;5045565;28;20037;-71
2021/07/09 11:26:25;;;;;;;6.80;2.88;;;20.50;99.90;;;;;;5045882;28;20029;-72
2021/07/09 11:28:51;;;;;;;3.70;2.30;;;20.50;99.90;;;;;;5045515;28;20030;-70
2021/07/09 11:31:34;;;;;;;3.05;1.88;;;20.50;99.90;;;;;;5045438;28;20032;-72
2021/07/09 11:34:07;;;;;;;6.50;2.22;;;20.40;99.90;;;;;;5045545;28;20044;-72
2021/07/09 11:36:40;;;;;;;4.83;2.53;;;20.40;99.90;;;;;;5045289;28;20589;-71
2021/07/09 11:39:15;;;;;;;5.27;2.73;;;20.50;99.90;;;;;;5045023;28;20104;-71
2021/07/09 11:41:50;;;;;;;4.90;2.38;;;20.50;99.90;;;;;;5044915;28;20049;-70
2021/07/09 11:44:17;;;;;;;4.45;2.25;;;20.50;99.90;;;;;;5045525;28;20037;-73
2021/07/09 11:46:48;;;;;;;7.20;2.17;;;20.40;99.90;;;;;;5045393;28;20030;-72
2021/07/09 11:49:25;;;;;;;5.82;2.15;;;20.50;99.90;;;;;;5045107;28;20038;-70
2021/07/09 11:51:53;;;;;;;2.70;2.08;;;20.50;99.90;;;;;;5045465;28;20030;-69
2021/07/09 11:54:27;;;;;;;3.08;2.10;;;20.60;99.90;;;;;;5045177;28;20067;-71
2021/07/09 11:56:54;;;;;;;;;;;20.60;99.90;;;;;;5045097;28;20028;-72
2021/07/09 11:59:21;;;;;;;7.93;3.05;;;20.50;99.90;;;;;;5044915;28;19905;-70
2021/07/09 12:02:07;;;;;;;6.18;2.78;;;20.50;99.90;;;;;;5044769;28;20113;-71
2021/07/09 12:04:35;;;;;;;4.13;2.58;;;20.50;99.90;;;;;;5044885;28;20030;-69
2021/07/09 12:07:24;;;;;;;5.03;2.85;;;20.50;99.90;;;;;;5044838;28;20033;-70
2021/07/09 12:09:53;;;;;;;4.45;2.70;;;20.50;99.90;;;;;;5044723;28;20048;-69
2021/07/09 12:12:20;;;;;;;8.48;3.13;;;20.60;99.90;;;;;;5044322;28;20072;-69
2021/07/09 12:15:11;;;;;;;7.18;3.10;;;20.60;99.90;;;;;;5043933;28;20032;-70
2021/07/09 12:17:56;;;;;;;5.32;2.78;;;20.60;99.90;;;;;;5045092;28;20026;-72
2021/07/09 12:20:28;;;;;;;7.82;3.17;;;20.60;99.90;;;;;;5044639;28;20029;-71
2021/07/09 12:23:00;;;;;;;8.70;2.78;;;20.60;99.90;;;;;;5043485;28;20097;-71
2021/07/09 12:25:36;;;;;;;9.80;3.20;;;20.60;99.90;;;;;;5044601;28;20029;-75
2021/07/09 12:28:07;;;;;;;5.78;2.70;;;20.60;99.90;;;;;;5044537;28;20554;-72
2021/07/09 12:30:34;;;;;;;8.00;3.20;;;20.60;99.90;;;;;;5044111;28;20041;-72
2021/07/09 12:33:11;;;;;;;6.90;2.75;;;20.50;99.90;;;;;;5044553;28;20428;-70
2021/07/09 12:35:36;;;;;;;4.72;2.55;;;20.60;99.90;;;;;;5044633;28;20083;-73
2021/07/09 12:38:06;;;;;;;6.72;3.05;;;20.60;99.90;;;;;;5044580;28;20041;-68
2021/07/09 12:40:33;;;;;;;7.40;3.42;;;20.60;99.90;;;;;;5044596;28;20038;-75
2021/07/09 12:43:15;;;;;;;5.85;2.67;;;20.70;99.90;;;;;;5044472;28;20045;-69
2021/07/09 12:45:43;;;;;;;6.25;3.03;;;20.80;99.90;;;;;;5044742;28;20025;-72